KOWD/OWD METAR and TAF weather

Enter ICAO airport designator
Station Type Date Time Source
KOWD METAR 2019/08/19 07:53 UTC NOAA

KOWD 190753Z AUTO 19003KT 10SM BKN012 26/22 A2995 RMK AO2 SLP142 T02560222 $


Station Type Date Time Source
KOWD Decoded METAR 2019/08/19 07:53 UTC NOAA

Station name not available
Aug 19, 2019 - 03:53 AM EDT / 2019.08.19 0753 UTC
Wind: from the S (190 degrees) at 3 MPH (3 KT):0
Visibility: 10 mile(s):0
Sky conditions: mostly cloudy
Temperature: 78.1 F (25.6 C)
Dew Point: 72.0 F (22.2 C)
Relative Humidity: 81%
Pressure (altimeter): 29.95 in. Hg (1014 hPa)
ob: KOWD 190753Z AUTO 19003KT 10SM BKN012 26/22 A2995 RMK AO2 SLP142 T02560222
cycle: 8

Station Type Date Time Source
KOWD TAF UTC NOAA

Error!

Example: see airport list